Time;durP1;ratioP1;P1;durP2;ratioP2;P2;SDS_P1;SDS_P2;PMS_P1;PMS_P2;Temp;Humidity;BMP_temperature;BMP_pressure;BME280_temperature;BME280_humidity;BME280_pressure;Samples;Min_cycle;Max_cycle;Signal;HPM_P1;HPM_P2
2022/04/25 00:01:11;;;;;;;3.22;1.00;;;5.70;93.60;;;;;;4975994;28;20105;-78
2022/04/25 00:03:37;;;;;;;1.52;0.82;;;5.70;93.90;;;;;;4975721;28;20030;-77
2022/04/25 00:06:03;;;;;;;1.38;0.90;;;5.60;93.90;;;;;;4975845;28;20509;-77
2022/04/25 00:08:29;;;;;;;1.23;0.80;;;5.60;94.10;;;;;;4975744;28;20118;-78
2022/04/25 00:10:55;;;;;;;3.47;0.80;;;5.50;94.20;;;;;;4975834;28;20114;-78
2022/04/25 00:13:21;;;;;;;1.42;0.80;;;5.40;94.30;;;;;;4976001;28;20089;-78
2022/04/25 00:15:46;;;;;;;1.60;0.70;;;5.40;94.20;;;;;;4974441;28;20534;-82
2022/04/25 00:18:12;;;;;;;0.85;0.63;;;5.30;94.20;;;;;;4975888;28;20086;-79
2022/04/25 00:20:38;;;;;;;2.08;1.10;;;5.40;94.40;;;;;;4975471;28;20023;-79
2022/04/25 00:23:05;;;;;;;2.75;0.90;;;5.30;94.70;;;;;;4975785;28;20031;-79
2022/04/25 00:25:35;;;;;;;2.05;0.80;;;5.30;94.70;;;;;;4975471;28;20085;-85
2022/04/25 00:28:02;;;;;;;1.13;0.95;;;5.30;94.60;;;;;;4975610;28;20042;-86
2022/04/25 00:30:30;;;;;;;5.20;1.05;;;5.10;94.90;;;;;;4975621;28;20038;-79
2022/04/25 00:32:57;;;;;;;3.20;0.77;;;5.10;95.30;;;;;;4975348;28;20097;-79
2022/04/25 00:35:23;;;;;;;0.95;0.80;;;5.10;95.70;;;;;;4975382;28;20018;-79
2022/04/25 00:37:50;;;;;;;2.17;0.90;;;5.10;95.70;;;;;;4968721;28;20418;-79
2022/04/25 00:40:19;;;;;;;1.45;0.93;;;5.00;96.40;;;;;;4955987;28;20041;-79
2022/04/25 00:42:45;;;;;;;1.50;0.88;;;4.90;96.60;;;;;;4955735;28;20054;-79
2022/04/25 00:45:14;;;;;;;3.25;0.90;;;4.90;96.90;;;;;;4961325;28;20502;-79
2022/04/25 00:47:41;;;;;;;0.97;0.90;;;4.90;97.30;;;;;;4975634;28;20557;-79
2022/04/25 00:50:08;;;;;;;1.55;0.88;;;4.80;97.70;;;;;;4975480;28;20029;-87
2022/04/25 00:52:34;;;;;;;1.35;0.80;;;4.80;98.00;;;;;;4975364;28;20023;-85
2022/04/25 00:55:02;;;;;;;1.00;0.90;;;4.80;98.10;;;;;;4975556;28;20031;-87
2022/04/25 00:57:28;;;;;;;1.98;0.90;;;4.80;98.10;;;;;;4957889;28;20019;-86
2022/04/25 00:59:57;;;;;;;2.55;1.00;;;4.80;98.10;;;;;;4975055;28;20546;-85
2022/04/25 01:02:23;;;;;;;0.88;0.75;;;4.70;98.30;;;;;;4975096;28;20474;-85
2022/04/25 01:04:49;;;;;;;2.25;0.90;;;4.70;98.60;;;;;;4974804;28;20035;-85
2022/04/25 01:07:14;;;;;;;1.20;1.05;;;4.70;98.70;;;;;;4975054;28;20086;-84
2022/04/25 01:09:40;;;;;;;4.45;1.75;;;4.80;98.50;;;;;;4974667;28;20032;-85
2022/04/25 01:12:06;;;;;;;1.63;1.10;;;4.80;99.30;;;;;;4974642;28;20065;-86
2022/04/25 01:14:33;;;;;;;1.85;1.15;;;4.80;99.30;;;;;;4974623;28;20019;-82
2022/04/25 01:17:00;;;;;;;4.50;1.10;;;4.80;99.20;;;;;;4974625;28;20038;-82
2022/04/25 01:19:26;;;;;;;1.15;0.90;;;4.70;99.30;;;;;;4974815;28;20077;-81
2022/04/25 01:22:14;;;;;;;2.72;1.08;;;4.70;99.90;;;;;;4974748;28;20120;-82
2022/04/25 01:27:26;;;;;;;10.00;1.55;;;4.60;99.90;;;;;;4974302;28;20089;-80
2022/04/25 01:29:54;;;;;;;20.42;1.98;;;4.60;99.90;;;;;;4974561;28;20030;-79
2022/04/25 01:32:22;;;;;;;10.07;1.20;;;4.60;99.90;;;;;;4974318;28;20035;-79
2022/04/25 01:34:48;;;;;;;10.38;1.50;;;4.60;99.90;;;;;;4974157;28;20022;-79
2022/04/25 01:37:18;;;;;;;10.13;1.17;;;4.50;99.90;;;;;;4956597;28;20026;-79
2022/04/25 01:39:55;;;;;;;7.93;1.35;;;4.50;99.90;;;;;;4974013;28;20041;-79
2022/04/25 01:42:22;;;;;;;2.40;1.00;;;4.50;99.90;;;;;;4974177;28;20046;-79
2022/04/25 01:44:48;;;;;;;3.15;1.00;;;4.50;99.90;;;;;;4973967;28;20590;-80
2022/04/25 01:47:14;;;;;;;0.90;0.90;;;4.50;99.90;;;;;;4973927;28;20061;-81
2022/04/25 01:49:40;;;;;;;3.03;0.95;;;4.60;99.90;;;;;;4974144;28;20068;-78
2022/04/25 01:52:27;;;;;;;1.85;0.95;;;4.50;99.90;;;;;;4973669;28;20091;-79
2022/04/25 01:54:53;;;;;;;3.53;0.90;;;4.60;99.90;;;;;;4973425;28;20042;-76
2022/04/25 01:57:19;;;;;;;4.55;0.80;;;4.60;99.90;;;;;;4973764;28;20440;-76
2022/04/25 01:59:45;;;;;;;1.83;0.95;;;4.50;99.90;;;;;;4973782;28;20019;-76
2022/04/25 02:02:14;;;;;;;1.40;1.15;;;4.50;99.90;;;;;;4973690;28;20386;-76
2022/04/25 02:04:40;;;;;;;2.15;0.82;;;4.50;99.90;;;;;;4973575;28;20073;-76
2022/04/25 02:07:10;;;;;;;1.25;0.82;;;4.50;99.90;;;;;;4973749;28;20390;-76
2022/04/25 02:09:37;;;;;;;2.60;1.13;;;4.50;99.90;;;;;;4973430;28;20032;-76
2022/04/25 02:12:04;;;;;;;1.40;0.90;;;4.50;99.90;;;;;;4973574;28;20109;-76
2022/04/25 02:14:30;;;;;;;3.58;0.98;;;4.50;99.90;;;;;;4973296;28;20054;-76
2022/04/25 02:16:59;;;;;;;2.17;1.20;;;4.50;99.90;;;;;;4973850;28;20082;-76
2022/04/25 02:19:28;;;;;;;1.80;0.80;;;4.50;99.90;;;;;;4973419;28;20031;-77
2022/04/25 02:21:55;;;;;;;3.40;1.48;;;4.50;99.90;;;;;;4973420;28;20026;-77
2022/04/25 02:55:52;;;;;;;65.38;5.30;;;4.10;99.90;;;;;;4981743;28;20055;-79
2022/04/25 02:58:21;;;;;;;13.23;2.25;;;4.10;99.90;;;;;;4972892;28;20487;-79
2022/04/25 03:00:48;;;;;;;20.40;1.67;;;4.10;99.90;;;;;;4972925;28;20077;-79
2022/04/25 03:36:57;;;;;;;1.85;0.93;;;3.90;99.90;;;;;;5845169;23;20409;-77
2022/04/25 03:39:23;;;;;;;3.35;0.70;;;3.90;99.90;;;;;;4938720;29;20020;-78
2022/04/25 03:41:49;;;;;;;4.72;1.00;;;3.90;99.90;;;;;;4957098;29;20487;-82
2022/04/25 03:44:14;;;;;;;0.85;0.75;;;3.90;99.90;;;;;;4956793;29;20024;-79
2022/04/25 03:46:40;;;;;;;2.10;1.15;;;3.90;99.90;;;;;;4958274;29;20035;-77
2022/04/25 03:49:06;;;;;;;12.70;1.40;;;3.90;99.90;;;;;;4956934;29;20474;-77
2022/04/25 03:51:32;;;;;;;1.65;0.77;;;3.90;99.90;;;;;;4957279;29;20391;-77
2022/04/25 03:53:57;;;;;;;3.25;0.90;;;3.90;99.90;;;;;;4956977;29;20031;-77
2022/04/25 03:59:08;;;;;;;7.45;1.15;;;3.80;99.90;;;;;;4956660;29;20026;-85
2022/04/25 04:01:35;;;;;;;4.43;1.30;;;3.90;99.90;;;;;;4956763;29;20110;-85
2022/04/25 04:04:04;;;;;;;3.28;1.10;;;3.90;99.90;;;;;;4956414;29;20034;-83
2022/04/25 04:06:32;;;;;;;1.65;0.90;;;3.90;99.90;;;;;;4939987;29;20030;-82
2022/04/25 04:08:57;;;;;;;3.20;1.10;;;4.00;99.90;;;;;;4956331;29;20603;-84
2022/04/25 04:11:23;;;;;;;0.88;0.80;;;4.30;99.90;;;;;;4956552;29;20027;-82
2022/04/25 04:13:49;;;;;;;2.42;0.95;;;4.70;99.90;;;;;;4956456;29;20428;-77
2022/04/25 04:16:14;;;;;;;3.92;0.93;;;5.10;99.90;;;;;;4956125;29;20030;-77
2022/04/25 04:18:42;;;;;;;3.72;1.13;;;5.50;99.90;;;;;;4955720;28;20027;-78
2022/04/25 04:21:09;;;;;;;1.40;1.00;;;5.90;99.90;;;;;;4956196;29;20051;-77
2022/04/25 04:23:35;;;;;;;11.25;1.23;;;6.40;99.50;;;;;;4956114;29;20180;-76
2022/04/25 04:26:01;;;;;;;4.15;0.90;;;6.70;97.90;;;;;;4955891;29;20043;-76
2022/04/25 04:28:27;;;;;;;3.67;1.00;;;7.10;96.60;;;;;;4956132;29;20047;-76
2022/04/25 04:30:52;;;;;;;19.88;1.35;;;7.40;95.10;;;;;;4955997;29;20693;-75
2022/04/25 04:33:18;;;;;;;8.00;1.20;;;7.80;93.80;;;;;;4955977;29;20070;-73
2022/04/25 04:38:28;;;;;;;7.47;0.95;;;8.50;91.20;;;;;;4955609;28;20073;-70
2022/04/25 04:40:54;;;;;;;19.48;1.75;;;9.10;98.50;;;;;;4955610;29;20055;-72
2022/04/25 04:43:19;;;;;;;7.45;1.10;;;10.60;97.50;;;;;;4964506;28;20037;-87
2022/04/25 04:45:45;;;;;;;7.70;1.30;;;10.90;82.70;;;;;;4975313;28;20111;-88
2022/04/25 04:48:11;;;;;;;10.95;1.20;;;10.80;78.70;;;;;;4974442;28;20030;-80
2022/04/25 04:50:36;;;;;;;25.25;1.65;;;10.70;77.30;;;;;;4956992;28;20022;-71
2022/04/25 04:53:02;;;;;;;21.70;1.80;;;10.50;76.40;;;;;;4971163;28;20042;-71
2022/04/25 04:55:29;;;;;;;3.35;0.60;;;10.50;76.60;;;;;;4974379;28;20030;-73
2022/04/25 04:57:58;;;;;;;6.93;0.90;;;10.50;75.40;;;;;;4965888;28;20035;-73
2022/04/25 05:00:23;;;;;;;2.63;0.80;;;10.50;75.00;;;;;;4959454;28;20379;-73
2022/04/25 05:02:49;;;;;;;2.78;0.82;;;10.70;74.80;;;;;;4964531;28;20034;-72
2022/04/25 05:05:15;;;;;;;5.38;1.10;;;11.00;73.70;;;;;;4954764;28;20102;-72
2022/04/25 05:07:41;;;;;;;6.95;1.50;;;11.40;72.10;;;;;;4956860;28;20082;-69
2022/04/25 05:10:09;;;;;;;15.55;2.22;;;11.80;70.50;;;;;;4974560;28;20037;-76
2022/04/25 05:12:52;;;;;;;21.00;2.33;;;12.10;69.50;;;;;;4974396;28;20113;-76
2022/04/25 05:15:19;;;;;;;9.85;1.13;;;12.30;68.50;;;;;;4974477;28;20023;-71
2022/04/25 05:17:48;;;;;;;25.15;1.52;;;12.80;83.50;;;;;;4975381;28;20055;-75
2022/04/25 05:20:14;;;;;;;5.07;0.80;;;13.80;79.70;;;;;;4974241;28;20105;-71
2022/04/25 05:22:45;;;;;;;15.40;1.85;;;14.10;78.80;;;;;;4957054;28;20026;-76
2022/04/25 05:25:16;;;;;;;9.10;1.40;;;14.50;70.60;;;;;;4974089;28;20444;-75
2022/04/25 05:27:43;;;;;;;5.25;0.90;;;14.50;67.30;;;;;;4973903;28;20169;-74
2022/04/25 05:30:10;;;;;;;46.55;3.30;;;14.40;64.80;;;;;;4972921;28;20056;-74
2022/04/25 05:32:56;;;;;;;16.58;1.20;;;14.30;64.90;;;;;;4974119;28;20034;-75
2022/04/25 05:35:27;;;;;;;9.55;1.23;;;14.50;63.30;;;;;;4956718;28;20050;-74
2022/04/25 05:37:53;;;;;;;77.72;4.53;;;14.80;62.40;;;;;;4973897;28;20046;-74
2022/04/25 05:40:20;;;;;;;9.70;1.10;;;15.00;61.20;;;;;;4973979;28;20037;-76
2022/04/25 05:42:47;;;;;;;5.07;1.02;;;15.10;60.80;;;;;;4974077;28;20098;-71
2022/04/25 05:45:15;;;;;;;11.13;1.50;;;15.20;59.70;;;;;;4956986;28;20153;-71
2022/04/25 05:47:43;;;;;;;14.95;1.00;;;15.30;59.00;;;;;;4956447;28;20038;-71
2022/04/25 05:52:55;;;;;;;14.27;1.10;;;15.40;58.30;;;;;;4959469;28;20073;-70
2022/04/25 05:55:21;;;;;;;13.85;0.88;;;15.60;57.90;;;;;;4973776;28;20386;-70
2022/04/25 05:57:47;;;;;;;7.65;0.60;;;15.70;57.50;;;;;;4973631;28;20509;-70
2022/04/25 06:00:14;;;;;;;10.90;0.82;;;15.70;57.60;;;;;;4973546;28;20031;-71
2022/04/25 06:02:41;;;;;;;4.07;0.70;;;16.10;58.90;;;;;;4970690;28;21262;-71
2022/04/25 06:05:11;;;;;;;8.73;0.88;;;16.30;57.70;;;;;;4961525;28;20483;-71
2022/04/25 06:07:43;;;;;;;3.28;0.75;;;16.30;56.30;;;;;;4973055;28;20039;-71
2022/04/25 06:10:10;;;;;;;2.72;0.43;;;16.30;55.90;;;;;;4972854;28;20534;-77
2022/04/25 06:12:43;;;;;;;0.45;0.45;;;16.20;55.10;;;;;;4973518;28;20166;-77
2022/04/25 06:15:10;;;;;;;1.50;0.38;;;16.10;55.00;;;;;;4973337;28;20022;-77
2022/04/25 06:17:39;;;;;;;1.25;0.30;;;16.10;55.00;;;;;;4970429;28;20031;-68
2022/04/25 06:20:06;;;;;;;51.00;3.65;;;16.00;54.70;;;;;;4972419;28;20022;-69
2022/04/25 06:22:32;;;;;;;2.63;0.40;;;15.90;54.30;;;;;;4973348;28;20118;-69
2022/04/25 06:24:58;;;;;;;1.40;0.40;;;15.80;54.40;;;;;;4973652;28;20106;-69
2022/04/25 06:27:24;;;;;;;7.70;0.98;;;15.70;55.10;;;;;;4956209;28;20193;-75
2022/04/25 06:29:52;;;;;;;12.35;0.90;;;15.50;55.00;;;;;;4973611;28;20422;-74
2022/04/25 06:32:19;;;;;;;0.90;0.50;;;15.50;55.30;;;;;;4973333;28;20030;-74
2022/04/25 06:34:44;;;;;;;3.60;0.50;;;15.50;55.10;;;;;;4973219;28;20029;-74
2022/04/25 06:37:10;;;;;;;7.05;1.20;;;15.40;54.90;;;;;;4972776;28;20046;-74
2022/04/25 06:39:36;;;;;;;192.18;14.57;;;15.20;55.40;;;;;;4973023;28;20110;-73
2022/04/25 06:42:02;;;;;;;8.55;0.90;;;15.20;55.10;;;;;;4973010;28;20034;-79
2022/04/25 06:44:28;;;;;;;4.47;0.88;;;15.20;55.20;;;;;;4972936;28;20022;-79
2022/04/25 06:46:54;;;;;;;6.45;0.60;;;15.20;55.90;;;;;;4972913;28;20402;-73
2022/04/25 06:49:20;;;;;;;1.83;0.65;;;15.40;60.50;;;;;;4972788;28;20474;-76
2022/04/25 06:51:47;;;;;;;7.78;1.20;;;15.70;56.80;;;;;;4973175;28;20502;-78
2022/04/25 06:54:13;;;;;;;40.33;2.58;;;15.70;55.10;;;;;;4972431;28;20089;-73
2022/04/25 06:56:40;;;;;;;4.82;1.55;;;15.70;55.00;;;;;;4972683;28;20402;-70
2022/04/25 06:59:05;;;;;;;4.00;0.63;;;15.70;55.00;;;;;;4972775;28;20019;-70
2022/04/25 07:01:32;;;;;;;4.35;0.45;;;15.50;54.30;;;;;;4972704;28;20027;-71
2022/04/25 07:03:59;;;;;;;3.35;0.82;;;15.30;54.70;;;;;;4955170;28;20372;-69
2022/04/25 07:06:25;;;;;;;4.68;0.60;;;15.20;55.20;;;;;;4972524;28;20110;-73
2022/04/25 07:08:52;;;;;;;44.13;3.50;;;15.20;55.60;;;;;;4972272;28;20077;-69
2022/04/25 07:11:17;;;;;;;1.17;0.45;;;15.30;56.40;;;;;;4972297;28;20109;-72
2022/04/25 07:13:45;;;;;;;1.88;0.85;;;15.40;55.80;;;;;;4972440;28;20428;-84
2022/04/25 07:16:14;;;;;;;1.15;0.40;;;15.40;55.20;;;;;;4972814;28;20026;-79
2022/04/25 07:18:41;;;;;;;5.50;0.65;;;15.30;54.80;;;;;;4972711;28;20030;-77
2022/04/25 07:29:22;;;;;;;6.53;0.85;;;14.90;61.60;;;;;;4972707;28;20054;-68
2022/04/25 07:31:51;;;;;;;17.92;1.13;;;14.90;56.10;;;;;;4972993;28;20046;-69
2022/04/25 07:34:20;;;;;;;4.93;0.73;;;14.90;56.80;;;;;;4972421;28;20042;-69
2022/04/25 07:36:51;;;;;;;12.35;1.73;;;14.70;55.80;;;;;;4972726;28;20030;-69
2022/04/25 07:39:21;;;;;;;5.75;0.90;;;14.60;56.20;;;;;;4955225;28;20451;-69
2022/04/25 07:41:49;;;;;;;1.90;0.70;;;14.40;56.30;;;;;;4972626;28;20037;-69
2022/04/25 07:44:15;;;;;;;2.25;0.60;;;14.20;56.00;;;;;;4955052;28;20046;-69
2022/04/25 07:46:41;;;;;;;17.95;1.30;;;14.00;56.50;;;;;;4972561;28;20027;-69
2022/04/25 07:49:09;;;;;;;2.10;0.60;;;14.00;57.00;;;;;;4972602;28;20446;-69
2022/04/25 07:51:42;;;;;;;9.43;0.77;;;13.80;56.60;;;;;;4972935;28;20030;-68
2022/04/25 07:54:08;;;;;;;44.33;3.05;;;13.70;57.20;;;;;;4975751;28;20089;-69
2022/04/25 07:56:35;;;;;;;18.67;0.98;;;13.70;57.40;;;;;;4976187;28;20035;-69
2022/04/25 07:59:01;;;;;;;10.80;1.08;;;13.70;57.50;;;;;;4976354;28;20042;-69
2022/04/25 08:01:28;;;;;;;10.80;0.90;;;13.70;57.50;;;;;;4975988;28;20023;-69
2022/04/25 08:03:55;;;;;;;9.68;1.13;;;13.70;57.60;;;;;;4975890;28;20034;-69
2022/04/25 08:06:20;;;;;;;10.70;1.02;;;13.60;57.60;;;;;;4975744;28;20111;-69
2022/04/25 08:08:51;;;;;;;33.20;3.08;;;13.60;58.00;;;;;;4975878;28;20475;-69
2022/04/25 08:11:17;;;;;;;;;;;13.70;57.90;;;;;;4976228;28;20066;-68
2022/04/25 08:19:13;;;;;;;5.75;1.20;;;13.60;59.00;;;;;;4975475;28;20029;-72
2022/04/25 08:21:43;;;;;;;24.25;2.90;;;13.40;59.30;;;;;;4973016;28;20026;-69
2022/04/25 08:24:10;;;;;;;16.92;1.40;;;13.20;59.70;;;;;;4969673;28;20110;-70
2022/04/25 08:26:36;;;;;;;9.45;0.80;;;13.10;59.40;;;;;;4972112;28;20036;-75
2022/04/25 08:29:02;;;;;;;4.32;0.68;;;13.10;65.20;;;;;;4974928;28;20034;-81
2022/04/25 08:31:29;;;;;;;8.35;0.90;;;13.60;61.50;;;;;;4974453;28;20026;-77
2022/04/25 08:33:56;;;;;;;27.77;2.03;;;13.50;59.60;;;;;;4972001;28;20026;-74
2022/04/25 08:36:22;;;;;;;7.18;1.92;;;13.40;60.20;;;;;;4954614;28;20019;-74
2022/04/25 08:38:47;;;;;;;9.93;1.15;;;13.40;59.60;;;;;;4971635;28;20045;-74
2022/04/25 08:41:16;;;;;;;6.78;1.00;;;13.40;59.30;;;;;;4974345;28;20516;-70
2022/04/25 08:43:43;;;;;;;16.63;1.35;;;13.30;59.70;;;;;;4971410;28;20027;-71
2022/04/25 08:46:10;;;;;;;6.32;0.68;;;13.30;61.00;;;;;;4972349;28;20026;-74
2022/04/25 08:48:39;;;;;;;72.78;3.97;;;13.40;59.60;;;;;;4966156;28;20031;-72
2022/04/25 08:51:05;;;;;;;18.88;1.75;;;13.30;58.90;;;;;;4966505;28;20022;-70
2022/04/25 08:53:33;;;;;;;6.88;1.08;;;13.20;60.00;;;;;;4944071;29;20038;-72
2022/04/25 08:56:03;;;;;;;44.47;2.42;;;13.50;68.70;;;;;;4956760;28;20434;-75
2022/04/25 08:58:31;;;;;;;;;;;13.80;60.00;;;;;;4962398;28;20070;-68
2022/04/25 09:00:58;;;;;;;10.68;1.40;;;14.20;73.80;;;;;;4971198;28;19953;-71
2022/04/25 09:03:24;;;;;;;12.85;0.80;;;15.30;70.50;;;;;;4973945;28;20022;-69
2022/04/25 09:05:50;;;;;;;13.95;1.10;;;15.90;68.60;;;;;;4958248;28;20023;-72
2022/04/25 09:08:17;;;;;;;21.13;1.77;;;16.30;68.20;;;;;;4973664;28;20487;-72
2022/04/25 09:10:47;;;;;;;16.58;0.85;;;16.50;66.10;;;;;;4957386;28;20019;-69
2022/04/25 09:13:14;;;;;;;25.98;1.23;;;16.70;65.50;;;;;;4955415;28;20031;-68
2022/04/25 09:15:42;;;;;;;13.10;1.23;;;16.70;65.00;;;;;;4974055;28;20094;-69
2022/04/25 09:18:09;;;;;;;18.02;1.38;;;16.70;64.50;;;;;;4957250;28;20557;-69
2022/04/25 09:20:41;;;;;;;9.85;0.90;;;16.70;64.00;;;;;;4971213;28;20023;-69
2022/04/25 09:23:21;;;;;;;16.65;2.55;;;16.80;63.60;;;;;;4973774;28;20118;-69
2022/04/25 09:26:10;;;;;;;17.50;1.35;;;16.90;63.30;;;;;;4971979;28;20019;-72
2022/04/25 09:28:50;;;;;;;21.60;1.58;;;16.70;57.50;;;;;;4972946;28;20045;-75
2022/04/25 09:31:17;;;;;;;3.08;0.60;;;16.00;58.10;;;;;;4973383;28;20053;-75
2022/04/25 09:33:44;;;;;;;3.65;0.68;;;15.40;57.90;;;;;;4956034;28;20041;-75
2022/04/25 09:36:10;;;;;;;7.88;0.93;;;14.90;58.50;;;;;;4958317;28;20024;-76
2022/04/25 09:38:40;;;;;;;9.68;1.10;;;14.60;58.80;;;;;;4966636;28;20051;-82
2022/04/25 09:41:11;;;;;;;4.57;0.70;;;14.20;59.00;;;;;;4970994;28;20097;-80
2022/04/25 09:43:39;;;;;;;3.35;0.68;;;14.10;59.30;;;;;;4972710;28;20026;-81
2022/04/25 09:46:08;;;;;;;6.13;0.80;;;14.20;61.60;;;;;;4964952;28;20027;-85
2022/04/25 09:48:36;;;;;;;38.90;2.65;;;14.10;60.00;;;;;;4977867;28;20043;-88
2022/04/25 09:51:07;;;;;;;67.05;4.03;;;14.00;60.10;;;;;;4963668;28;20089;-87
2022/04/25 09:53:41;;;;;;;15.32;1.23;;;14.00;59.60;;;;;;4960012;28;20098;-88
2022/04/25 09:56:12;;;;;;;4.50;0.68;;;13.90;59.60;;;;;;4967607;28;20509;-87
2022/04/25 09:58:40;;;;;;;37.50;2.72;;;13.90;59.60;;;;;;4967444;28;20367;-86
2022/04/25 10:01:14;;;;;;;5.88;0.82;;;13.70;60.20;;;;;;4959945;28;20371;-87
2022/04/25 10:03:41;;;;;;;13.60;1.80;;;13.70;59.90;;;;;;4968468;28;20149;-86
2022/04/25 10:06:07;;;;;;;27.48;1.98;;;13.80;60.20;;;;;;4970818;28;20018;-85
2022/04/25 10:08:35;;;;;;;18.50;1.75;;;13.90;59.70;;;;;;4967625;28;20187;-86
2022/04/25 10:11:06;;;;;;;5.07;1.20;;;13.90;59.50;;;;;;4968489;28;20023;-86
2022/04/25 10:13:33;;;;;;;15.57;1.42;;;14.00;59.30;;;;;;4970461;28;20386;-82
2022/04/25 10:16:00;;;;;;;12.60;1.13;;;14.00;59.00;;;;;;4972001;28;20027;-84
2022/04/25 10:18:27;;;;;;;48.63;2.80;;;13.90;59.20;;;;;;4971033;28;20478;-75
2022/04/25 10:20:53;;;;;;;25.85;2.03;;;13.60;59.60;;;;;;4969626;28;20096;-74
2022/04/25 10:23:19;;;;;;;12.75;1.17;;;13.50;60.00;;;;;;4970040;28;20027;-74
2022/04/25 10:25:54;;;;;;;2.30;1.08;;;13.20;60.80;;;;;;4959620;28;20029;-74
2022/04/25 10:28:28;;;;;;;23.60;1.88;;;13.10;61.00;;;;;;4972412;28;20039;-74
2022/04/25 10:30:59;;;;;;;7.65;0.90;;;13.00;61.50;;;;;;4957130;28;20034;-74
2022/04/25 10:33:25;;;;;;;17.48;1.70;;;12.80;61.90;;;;;;4970586;28;20026;-74
2022/04/25 10:35:52;;;;;;;42.75;2.95;;;12.70;62.00;;;;;;4957349;28;20023;-74
2022/04/25 10:44:18;;;;;;;14.57;1.58;;;12.50;62.20;;;;;;4972192;28;20029;-74
2022/04/25 10:47:03;;;;;;;32.33;3.22;;;12.20;62.50;;;;;;4972489;28;20549;-74
2022/04/25 10:49:42;;;;;;;74.55;4.65;;;12.30;63.30;;;;;;4965073;28;20033;-74
2022/04/25 10:52:42;;;;;;;37.63;2.30;;;12.20;63.40;;;;;;4966717;28;20102;-75
2022/04/25 10:55:14;;;;;;;8.80;1.50;;;12.30;63.50;;;;;;4970928;28;20277;-73
2022/04/25 10:58:01;;;;;;;9.38;1.85;;;12.40;63.20;;;;;;4966357;28;20457;-74
2022/04/25 11:03:12;;;;;;;19.55;2.03;;;12.50;63.00;;;;;;4971718;28;20031;-78
2022/04/25 11:05:43;;;;;;;42.72;3.15;;;12.60;63.30;;;;;;4971659;28;20041;-80
2022/04/25 11:08:23;;;;;;;19.35;2.50;;;12.50;63.10;;;;;;4971921;28;20027;-78
2022/04/25 11:10:52;;;;;;;17.90;2.15;;;12.40;63.20;;;;;;4952026;28;20437;-78
2022/04/25 11:13:22;;;;;;;13.60;1.67;;;12.40;63.70;;;;;;4969009;28;20019;-78
2022/04/25 11:15:49;;;;;;;18.08;2.88;;;12.40;63.70;;;;;;4935944;28;20047;-81
2022/04/25 11:18:38;;;;;;;13.48;1.65;;;12.40;63.80;;;;;;4955711;28;20031;-79
2022/04/25 11:21:13;;;;;;;42.28;4.45;;;12.30;63.80;;;;;;4968309;28;20078;-79
2022/04/25 11:23:44;;;;;;;32.38;2.70;;;12.20;64.30;;;;;;4952964;28;20023;-79
2022/04/25 11:26:36;;;;;;;13.40;2.38;;;12.20;64.40;;;;;;4968440;28;20019;-82
2022/04/25 11:29:08;;;;;;;18.42;3.03;;;12.30;65.20;;;;;;4971905;28;20102;-79
2022/04/25 11:31:38;;;;;;;14.05;1.90;;;12.70;66.30;;;;;;4962275;28;20039;-80
2022/04/25 11:34:11;;;;;;;13.60;1.67;;;12.80;64.40;;;;;;4965659;28;20039;-79
2022/04/25 11:36:42;;;;;;;14.80;1.45;;;12.60;63.90;;;;;;4973341;28;20039;-72
2022/04/25 11:41:52;;;;;;;4.25;1.10;;;13.40;72.80;;;;;;4976365;28;20046;-81
2022/04/25 11:44:18;;;;;;;2.45;0.70;;;13.50;63.90;;;;;;4976359;28;20035;-81
2022/04/25 11:46:46;;;;;;;3.67;1.08;;;13.30;63.20;;;;;;4975832;28;20117;-81
2022/04/25 11:49:12;;;;;;;1.35;0.57;;;13.10;63.50;;;;;;4975721;28;20114;-81
2022/04/25 11:51:40;;;;;;;7.30;0.88;;;12.90;63.00;;;;;;4975772;28;20023;-81
2022/04/25 11:54:08;;;;;;;1.58;0.70;;;12.80;62.00;;;;;;4958398;28;20662;-81
2022/04/25 11:56:39;;;;;;;7.60;0.90;;;12.80;61.90;;;;;;4975337;28;20086;-78
2022/04/25 11:59:13;;;;;;;0.85;0.60;;;12.80;62.80;;;;;;4975504;28;20490;-80
2022/04/25 12:01:47;;;;;;;15.60;1.33;;;12.80;61.90;;;;;;4975378;28;20387;-74
2022/04/25 12:04:27;;;;;;;6.97;1.17;;;12.80;62.60;;;;;;4975408;28;20093;-73
2022/04/25 12:07:02;;;;;;;;;;;12.90;62.60;;;;;;4976141;28;20126;-72
2022/04/25 12:15:40;;;;;;;5.13;1.25;;;12.90;62.00;;;;;;4976377;28;20117;-71
2022/04/25 12:18:25;;;;;;;2.38;0.60;;;12.80;62.00;;;;;;4975810;28;20031;-71
2022/04/25 12:20:58;;;;;;;2.08;0.73;;;12.80;63.00;;;;;;4975683;28;20363;-74
2022/04/25 12:23:27;;;;;;;1.92;0.65;;;12.80;62.90;;;;;;4975663;28;20057;-73
2022/04/25 12:25:54;;;;;;;5.03;1.00;;;12.80;62.10;;;;;;4975527;28;20038;-73
2022/04/25 12:28:23;;;;;;;14.15;1.15;;;13.60;69.70;;;;;;4958673;28;20467;-74
2022/04/25 12:30:53;;;;;;;3.00;0.65;;;13.60;61.90;;;;;;4974473;28;20027;-69
2022/04/25 12:33:21;;;;;;;1.65;0.70;;;13.60;65.20;;;;;;4977022;28;20104;-74
2022/04/25 12:35:49;;;;;;;1.25;0.60;;;13.60;62.30;;;;;;4976016;28;20089;-84
2022/04/25 12:38:41;;;;;;;1.70;0.60;;;13.50;60.40;;;;;;4999300;28;20054;-84
2022/04/25 12:41:09;;;;;;;1.17;0.52;;;13.20;59.30;;;;;;5014397;28;20073;-84
2022/04/25 12:43:45;;;;;;;5.60;0.60;;;13.00;59.60;;;;;;5014004;28;20022;-83
2022/04/25 12:46:16;;;;;;;1.38;0.57;;;12.80;60.20;;;;;;4996460;28;20065;-84
2022/04/25 12:49:18;;;;;;;5.55;0.80;;;12.80;60.80;;;;;;5014143;28;20116;-83
2022/04/25 12:51:58;;;;;;;2.42;0.47;;;12.70;61.00;;;;;;5014187;28;20034;-84
2022/04/25 12:54:30;;;;;;;16.67;1.35;;;12.40;61.90;;;;;;5013146;28;20033;-81
2022/04/25 12:57:05;;;;;;;3.00;0.50;;;12.30;63.50;;;;;;5014172;28;20030;-74
2022/04/25 12:59:33;;;;;;;1.63;0.60;;;12.30;63.10;;;;;;5013983;28;20018;-74
2022/04/25 13:02:21;;;;;;;13.07;0.82;;;12.20;63.60;;;;;;5013759;28;20113;-75
2022/04/25 13:04:54;;;;;;;9.73;1.00;;;12.10;63.90;;;;;;5013610;28;20053;-75
2022/04/25 13:07:31;;;;;;;11.32;1.13;;;12.00;64.20;;;;;;5013633;28;20493;-73
2022/04/25 13:10:00;;;;;;;9.93;0.93;;;11.90;64.60;;;;;;4974041;28;20039;-72
2022/04/25 13:12:39;;;;;;;5.55;0.63;;;11.90;64.80;;;;;;4974014;28;20029;-71
2022/04/25 13:15:07;;;;;;;4.83;0.90;;;12.00;65.10;;;;;;4974178;28;20019;-72
2022/04/25 13:17:36;;;;;;;5.28;1.00;;;11.90;65.10;;;;;;4979374;28;20030;-76
2022/04/25 13:20:03;;;;;;;2.63;0.70;;;11.90;65.10;;;;;;4974103;28;20078;-77
2022/04/25 13:22:28;;;;;;;3.05;0.70;;;11.90;65.80;;;;;;4976819;28;20030;-77
2022/04/25 13:24:54;;;;;;;6.25;0.63;;;11.90;65.80;;;;;;4976525;28;20363;-77
2022/04/25 13:27:21;;;;;;;2.63;0.73;;;11.80;66.30;;;;;;4974116;28;20030;-77
2022/04/25 13:29:48;;;;;;;3.83;0.70;;;11.70;66.50;;;;;;4973990;28;20066;-76
2022/04/25 13:32:14;;;;;;;0.95;0.40;;;11.70;66.50;;;;;;4976321;28;20033;-77
2022/04/25 13:34:40;;;;;;;1.52;0.40;;;11.70;66.70;;;;;;4976541;28;20022;-78
2022/04/25 13:37:06;;;;;;;1.10;0.50;;;11.70;67.00;;;;;;4973046;28;20054;-78
2022/04/25 13:39:33;;;;;;;0.35;0.35;;;11.50;69.00;;;;;;4957036;28;20406;-82
2022/04/25 13:42:02;;;;;;;0.77;0.40;;;11.40;70.30;;;;;;4957110;28;20030;-78
2022/04/25 13:44:28;;;;;;;0.30;0.30;;;11.20;71.90;;;;;;4954207;28;20046;-78
2022/04/25 13:46:55;;;;;;;1.00;0.40;;;11.10;73.80;;;;;;4954357;28;20063;-79
2022/04/25 13:49:21;;;;;;;1.40;0.55;;;11.00;74.70;;;;;;4954089;28;20569;-78
2022/04/25 13:51:47;;;;;;;0.80;0.55;;;11.00;74.70;;;;;;4953440;28;20031;-77
2022/04/25 13:54:13;;;;;;;1.90;0.40;;;11.00;74.50;;;;;;4956671;28;20059;-78
2022/04/25 13:56:41;;;;;;;2.28;0.63;;;11.00;74.60;;;;;;4956434;28;20027;-77
2022/04/25 13:59:08;;;;;;;1.70;0.60;;;11.00;74.40;;;;;;4959320;28;20022;-76
2022/04/25 14:01:34;;;;;;;6.68;0.88;;;11.00;74.80;;;;;;4956530;28;20031;-77
2022/04/25 14:04:00;;;;;;;2.17;0.30;;;11.00;75.00;;;;;;4956455;28;20027;-77
2022/04/25 14:06:25;;;;;;;0.75;0.40;;;10.90;76.30;;;;;;4956466;28;20025;-77
2022/04/25 14:08:53;;;;;;;0.77;0.30;;;10.90;77.40;;;;;;4936599;28;20042;-77
2022/04/25 14:11:19;;;;;;;1.92;0.30;;;10.80;78.30;;;;;;4958828;28;20028;-76
2022/04/25 14:13:49;;;;;;;0.38;0.30;;;10.80;79.00;;;;;;4954234;28;20047;-76
2022/04/25 14:16:15;;;;;;;0.32;0.32;;;10.70;80.50;;;;;;4939298;28;20431;-76
2022/04/25 14:18:41;;;;;;;0.60;0.30;;;10.60;81.80;;;;;;4956456;28;20023;-77
2022/04/25 14:21:08;;;;;;;2.80;0.30;;;10.50;81.70;;;;;;4959040;28;20102;-77
2022/04/25 14:23:35;;;;;;;1.45;0.30;;;10.60;82.80;;;;;;4953651;28;20105;-77
2022/04/25 14:26:02;;;;;;;2.90;0.55;;;10.60;83.20;;;;;;4959300;28;20071;-76
2022/04/25 14:28:28;;;;;;;2.47;0.40;;;10.70;82.90;;;;;;4954274;28;20035;-76
2022/04/25 14:30:54;;;;;;;4.15;0.30;;;10.60;83.00;;;;;;4953990;28;20042;-76
2022/04/25 14:33:22;;;;;;;0.30;0.30;;;10.60;83.10;;;;;;4966441;28;20549;-76
2022/04/25 14:35:50;;;;;;;19.17;1.40;;;10.50;83.50;;;;;;4964830;28;20027;-76
2022/04/25 14:38:22;;;;;;;3.70;0.30;;;10.50;84.50;;;;;;4953593;28;20118;-78
2022/04/25 14:40:53;;;;;;;1.30;0.38;;;10.60;86.70;;;;;;4958191;28;20026;-74
2022/04/25 14:43:19;;;;;;;3.17;0.80;;;10.70;87.50;;;;;;4953687;28;20089;-75